Weather at Wynne Municipal Airport [CLOSED]

Public forecast

Using degrees Fahrenheit for public forecast. Weather courtesy of forecast.io.

Closest aviation weather report (METAR) to Wynne Municipal Airport

Closest report is West Memphis Municipal Airport, 26.5 nm (49.1 km) ESE. Retrieved 2022/05/25 01:53 UTC (51 minutes ago):

KAWM 250153Z AUTO 16011KT 10SM CLR 23/21 A2985 RMK AO2 SLP104 T02280206

Closest aviation forecast (TAF) to Wynne Municipal Airport

Closest forecast is Jonesboro Municipal Airport, 36.5 nm (67.5 km) N. Retrieved 2022-05-25 00:39 UTC (2 hours ago):

TAF KJBR 242337Z 2500/2524 10010KT P6SM VCTS BKN035CB OVC050 TEMPO 2500/2503 18015G25KT 3SM TSRA BKN025CB FM250600 17010KT P6SM VCSH BKN015 WS020/18045KT FM251400 18019G25KT P6SM OVC035 FM252300 18010KT P6SM OVC100